createdAt,value
2023-02-14T00:00:20.883Z,1.66
2023-02-14T00:02:47.678Z,1.67
2023-02-14T00:05:14.243Z,1.53
2023-02-14T00:07:40.654Z,1.55
2023-02-14T00:10:07.757Z,1.47
2023-02-14T00:12:34.071Z,1.50
2023-02-14T00:15:00.514Z,1.38
2023-02-14T00:17:26.853Z,1.41
2023-02-14T00:19:53.252Z,1.39
2023-02-14T00:22:19.582Z,1.30
2023-02-14T00:24:45.922Z,1.27
2023-02-14T00:27:12.397Z,1.20
2023-02-14T00:29:38.860Z,1.24
2023-02-14T00:32:05.354Z,1.19
2023-02-14T00:34:31.954Z,1.18
2023-02-14T00:36:58.338Z,1.14
2023-02-14T00:39:24.708Z,1.18
2023-02-14T00:41:51.638Z,1.03
2023-02-14T00:44:19.195Z,1.01
2023-02-14T00:46:45.613Z,1.01
2023-02-14T00:49:11.988Z,1.05
2023-02-14T00:51:39.677Z,1.03
2023-02-14T00:54:06.066Z,1.04
2023-02-14T00:56:32.710Z,1.04
2023-02-14T00:58:59.255Z,1.01
2023-02-14T01:01:25.780Z,1.03
2023-02-14T01:03:52.264Z,1.05
2023-02-14T01:06:18.712Z,0.95
2023-02-14T01:08:45.162Z,0.88
2023-02-14T01:11:17.977Z,0.88
2023-02-14T01:13:45.311Z,0.89
2023-02-14T01:16:14.597Z,1.02
2023-02-14T01:18:42.121Z,0.89
2023-02-14T01:21:21.172Z,0.93
2023-02-14T01:23:48.900Z,0.91
2023-02-14T01:26:16.214Z,0.78
2023-02-14T01:28:44.116Z,0.92
2023-02-14T01:31:17.781Z,0.89
2023-02-14T01:33:46.480Z,0.80
2023-02-14T01:36:19.482Z,0.77
2023-02-14T01:38:46.289Z,0.70
2023-02-14T01:41:13.093Z,0.66
2023-02-14T01:43:59.618Z,0.70
2023-02-14T01:46:28.653Z,0.68
2023-02-14T01:49:01.944Z,0.70
2023-02-14T01:51:29.899Z,0.65
2023-02-14T01:53:57.206Z,0.59
2023-02-14T01:56:36.871Z,0.58
2023-02-14T01:59:08.029Z,0.63
2023-02-14T02:01:34.623Z,0.61
2023-02-14T02:04:09.756Z,0.68
2023-02-14T02:06:41.147Z,0.62
2023-02-14T02:09:34.520Z,0.71
2023-02-14T02:12:01.894Z,0.74
2023-02-14T02:14:28.702Z,0.76
2023-02-14T02:17:25.743Z,0.89
2023-02-14T02:20:28.622Z,1.05
2023-02-14T02:23:20.117Z,1.02
2023-02-14T02:25:53.960Z,1.01
2023-02-14T02:28:55.447Z,1.12
2023-02-14T02:31:33.944Z,1.09
2023-02-14T02:34:19.041Z,1.09
2023-02-14T02:37:02.615Z,1.04
2023-02-14T02:39:53.822Z,1.09
2023-02-14T02:42:34.074Z,1.08
2023-02-14T02:45:24.464Z,1.20
2023-02-14T02:48:20.387Z,1.24
2023-02-14T02:50:53.643Z,1.22
2023-02-14T02:53:34.200Z,1.23
2023-02-14T02:56:06.204Z,1.35
2023-02-14T02:58:37.609Z,1.40
2023-02-14T03:01:13.418Z,1.52
2023-02-14T03:03:42.548Z,1.42
2023-02-14T03:06:08.839Z,1.39
2023-02-14T03:08:35.294Z,1.47
2023-02-14T03:11:03.406Z,1.39
2023-02-14T03:13:51.433Z,1.61
2023-02-14T03:16:23.784Z,1.56
2023-02-14T03:19:36.769Z,1.68
2023-02-14T03:22:40.909Z,1.61
2023-02-14T03:25:27.650Z,1.56
2023-02-14T03:28:12.178Z,1.63
2023-02-14T03:31:06.432Z,1.61
2023-02-14T03:33:58.857Z,1.52
2023-02-14T03:36:43.630Z,1.43
2023-02-14T03:39:29.416Z,1.38
2023-02-14T03:42:06.388Z,1.46
2023-02-14T03:44:34.817Z,1.43
2023-02-14T03:47:14.790Z,1.54
2023-02-14T03:49:47.675Z,1.47
2023-02-14T03:52:15.499Z,1.52
2023-02-14T03:54:42.842Z,1.47
2023-02-14T03:57:23.528Z,1.34
2023-02-14T03:59:50.231Z,1.41
2023-02-14T04:02:37.105Z,1.39
2023-02-14T04:05:09.757Z,1.38
2023-02-14T04:07:48.980Z,1.50
2023-02-14T04:10:16.733Z,1.36
2023-02-14T04:12:43.290Z,1.37
2023-02-14T04:15:10.348Z,1.42
2023-02-14T04:17:36.928Z,1.41
2023-02-14T04:20:03.474Z,1.42
2023-02-14T04:22:29.746Z,1.29
2023-02-14T04:24:56.112Z,1.30
2023-02-14T04:27:22.374Z,1.28
2023-02-14T04:29:50.030Z,1.24
2023-02-14T04:32:19.720Z,1.27
2023-02-14T04:34:46.391Z,1.31
2023-02-14T04:37:14.772Z,1.24
2023-02-14T04:39:41.260Z,1.29
2023-02-14T04:42:07.862Z,1.27
2023-02-14T04:44:34.549Z,1.27
2023-02-14T04:47:01.657Z,1.34
2023-02-14T04:49:28.209Z,1.24
2023-02-14T04:51:54.726Z,1.23
2023-02-14T04:54:21.109Z,1.24
2023-02-14T04:56:47.374Z,1.17
2023-02-14T04:59:14.017Z,1.16
2023-02-14T05:01:41.053Z,1.22
2023-02-14T05:04:07.973Z,1.33
2023-02-14T05:06:34.427Z,1.34
2023-02-14T05:09:01.824Z,1.23
2023-02-14T05:11:28.983Z,1.29
2023-02-14T05:13:55.509Z,1.14
2023-02-14T05:16:22.476Z,1.17
2023-02-14T05:18:48.808Z,1.14
2023-02-14T05:21:15.183Z,1.24
2023-02-14T05:23:41.519Z,1.23
2023-02-14T05:26:07.918Z,1.22
2023-02-14T05:28:34.284Z,1.19
2023-02-14T05:31:01.216Z,1.22
2023-02-14T05:33:27.784Z,1.43
2023-02-14T05:35:54.165Z,1.27
2023-02-14T05:38:20.462Z,1.26
2023-02-14T05:40:47.227Z,1.15
2023-02-14T05:43:13.531Z,0.99
2023-02-14T05:45:39.885Z,1.27
2023-02-14T05:48:06.355Z,1.30
2023-02-14T05:50:32.645Z,1.22
2023-02-14T05:52:59.007Z,1.17
2023-02-14T05:55:25.283Z,1.23
2023-02-14T05:57:51.646Z,1.13
2023-02-14T06:00:18.615Z,1.16
2023-02-14T06:02:44.976Z,1.09
2023-02-14T06:05:11.346Z,1.19
2023-02-14T06:07:38.002Z,1.29
2023-02-14T06:10:04.532Z,1.17
2023-02-14T06:12:30.892Z,1.23
2023-02-14T06:14:57.192Z,1.22
2023-02-14T06:17:23.623Z,1.08
2023-02-14T06:19:49.933Z,1.12
2023-02-14T06:22:16.423Z,1.11
2023-02-14T06:24:42.834Z,1.11
2023-02-14T06:27:09.200Z,1.13
2023-02-14T06:29:35.519Z,1.17
2023-02-14T06:32:01.975Z,1.21
2023-02-14T06:34:28.408Z,1.20
2023-02-14T06:36:54.763Z,1.21
2023-02-14T06:39:21.099Z,1.24
2023-02-14T06:41:47.388Z,1.31
2023-02-14T06:44:13.767Z,1.29
2023-02-14T06:46:40.152Z,1.27
2023-02-14T06:49:06.544Z,1.24
2023-02-14T06:51:32.824Z,1.32
2023-02-14T06:53:59.311Z,1.38
2023-02-14T06:56:25.579Z,1.42
2023-02-14T06:58:51.940Z,1.42
2023-02-14T07:01:19.849Z,1.45
2023-02-14T07:03:46.167Z,1.52
2023-02-14T07:06:12.591Z,1.51
2023-02-14T07:08:38.985Z,1.64
2023-02-14T07:11:05.713Z,1.68
2023-02-14T07:13:31.995Z,1.72
2023-02-14T07:15:58.339Z,1.82
2023-02-14T07:18:25.295Z,1.66
2023-02-14T07:20:51.598Z,1.71
2023-02-14T07:23:18.518Z,1.73
2023-02-14T07:25:44.857Z,1.71
2023-02-14T07:28:11.624Z,1.68
2023-02-14T07:30:37.927Z,1.78
2023-02-14T07:33:04.680Z,1.77
2023-02-14T07:35:30.973Z,1.72
2023-02-14T07:37:57.282Z,1.69
2023-02-14T07:40:23.651Z,1.65
2023-02-14T07:42:57.666Z,1.74
2023-02-14T07:45:25.585Z,1.89
2023-02-14T07:47:54.690Z,1.92
2023-02-14T07:50:22.774Z,1.84
2023-02-14T07:52:49.422Z,1.93
2023-02-14T07:55:16.152Z,1.88
2023-02-14T07:57:43.222Z,1.98
2023-02-14T08:00:10.886Z,2.09
2023-02-14T08:02:37.534Z,2.08
2023-02-14T08:05:03.940Z,2.05
2023-02-14T08:07:30.377Z,2.08
2023-02-14T08:09:56.682Z,2.20
2023-02-14T08:12:22.972Z,2.19
2023-02-14T08:14:50.501Z,2.19
2023-02-14T08:17:16.907Z,2.23
2023-02-14T08:19:43.244Z,2.35
2023-02-14T08:22:09.542Z,2.41
2023-02-14T08:24:35.935Z,2.46
2023-02-14T08:27:03.171Z,2.51
2023-02-14T08:29:29.547Z,2.53
2023-02-14T08:31:55.942Z,2.53
2023-02-14T08:34:22.962Z,2.60
2023-02-14T08:36:49.360Z,2.64
2023-02-14T08:39:15.979Z,2.56
2023-02-14T08:41:42.281Z,2.60
2023-02-14T08:44:09.823Z,2.64
2023-02-14T08:46:36.140Z,2.65
2023-02-14T08:49:04.673Z,2.73
2023-02-14T08:51:31.033Z,2.79
2023-02-14T08:53:57.666Z,2.82
2023-02-14T08:56:23.999Z,2.91
2023-02-14T08:58:54.212Z,2.98
2023-02-14T09:01:20.573Z,2.99
2023-02-14T09:03:47.852Z,3.10
2023-02-14T09:06:16.978Z,3.19
2023-02-14T09:08:45.683Z,3.29
2023-02-14T09:11:23.419Z,3.34
2023-02-14T09:13:51.806Z,3.44
2023-02-14T09:16:19.864Z,3.42
2023-02-14T09:18:47.509Z,3.54
2023-02-14T09:21:16.871Z,3.69
2023-02-14T09:23:43.285Z,3.69
2023-02-14T09:26:13.489Z,3.69
2023-02-14T09:28:40.082Z,3.75
2023-02-14T09:31:13.287Z,3.75
2023-02-14T09:33:40.559Z,3.79
2023-02-14T09:36:07.761Z,3.96
2023-02-14T09:38:34.148Z,4.01
2023-02-14T09:41:06.297Z,4.01
2023-02-14T09:43:55.896Z,4.15
2023-02-14T09:46:25.698Z,4.14
2023-02-14T09:48:54.497Z,4.15
2023-02-14T09:51:24.700Z,4.20
2023-02-14T09:54:02.617Z,4.43
2023-02-14T09:56:54.963Z,4.66
2023-02-14T09:59:46.197Z,4.62
2023-02-14T10:02:46.968Z,4.80
2023-02-14T10:05:36.313Z,4.80
2023-02-14T10:08:09.367Z,4.90
2023-02-14T10:10:42.096Z,4.86
2023-02-14T10:13:22.584Z,4.91
2023-02-14T10:15:57.048Z,4.96
2023-02-14T10:18:41.653Z,5.07
2023-02-14T10:21:13.285Z,5.21
2023-02-14T10:23:50.907Z,5.37
2023-02-14T10:26:25.355Z,5.31
2023-02-14T10:28:51.673Z,5.04
2023-02-14T10:31:24.079Z,5.15
2023-02-14T10:33:52.344Z,5.12
2023-02-14T10:36:30.264Z,5.21
2023-02-14T10:39:02.441Z,5.35
2023-02-14T10:41:56.776Z,5.45
2023-02-14T10:44:59.694Z,5.52
2023-02-14T10:48:11.082Z,5.71
2023-02-14T10:50:56.667Z,5.64
2023-02-14T10:53:29.062Z,6.21
2023-02-14T10:56:05.036Z,5.87
2023-02-14T10:58:36.735Z,5.99
2023-02-14T11:01:17.401Z,6.03
2023-02-14T11:03:55.859Z,6.17
2023-02-14T11:06:22.214Z,6.49
2023-02-14T11:08:48.502Z,7.00
2023-02-14T11:11:28.300Z,8.01
2023-02-14T11:13:54.641Z,8.96
2023-02-14T11:16:36.270Z,9.71
2023-02-14T11:19:14.734Z,10.34
2023-02-14T11:21:44.682Z,10.73
2023-02-14T11:24:28.296Z,11.83
2023-02-14T11:26:59.705Z,12.18
2023-02-14T11:29:32.926Z,11.94
2023-02-14T11:32:08.266Z,11.80
2023-02-14T11:34:41.595Z,12.11
2023-02-14T11:37:22.846Z,12.21
2023-02-14T11:39:50.880Z,12.34
2023-02-14T11:42:37.034Z,12.15
2023-02-14T11:45:04.668Z,12.05
2023-02-14T11:47:34.227Z,12.18
2023-02-14T11:50:30.277Z,11.72
2023-02-14T11:52:58.006Z,11.62
2023-02-14T11:55:27.861Z,11.85
2023-02-14T11:57:55.705Z,12.00
2023-02-14T12:00:22.934Z,11.72
2023-02-14T12:02:51.106Z,11.91
2023-02-14T12:05:45.031Z,12.17
2023-02-14T12:08:12.004Z,12.25
2023-02-14T12:10:39.949Z,12.38
2023-02-14T12:13:12.265Z,12.22
2023-02-14T12:15:59.686Z,11.79
2023-02-14T12:18:38.017Z,11.44
2023-02-14T12:21:19.428Z,11.22
2023-02-14T12:23:55.962Z,10.83
2023-02-14T12:26:50.726Z,11.23
2023-02-14T12:29:26.167Z,11.38
2023-02-14T12:31:53.514Z,11.60
2023-02-14T12:34:20.886Z,12.04
2023-02-14T12:37:11.716Z,12.08
2023-02-14T12:40:07.010Z,11.91
2023-02-14T12:42:56.028Z,11.81
2023-02-14T12:45:25.446Z,11.93
2023-02-14T12:48:19.166Z,12.17
2023-02-14T12:51:10.234Z,12.44
2023-02-14T12:53:52.798Z,12.65
2023-02-14T12:56:35.536Z,12.70
2023-02-14T12:59:17.806Z,12.88
2023-02-14T13:02:16.616Z,13.29
2023-02-14T13:05:02.038Z,13.96
2023-02-14T13:07:51.420Z,14.82
2023-02-14T13:10:43.155Z,15.34
2023-02-14T13:13:30.089Z,15.45
2023-02-14T13:16:21.362Z,15.33
2023-02-14T13:19:03.162Z,14.93
2023-02-14T13:21:34.673Z,14.93
2023-02-14T13:24:14.022Z,15.12
2023-02-14T13:26:43.173Z,15.39
2023-02-14T13:29:22.336Z,15.55
2023-02-14T13:31:49.954Z,15.45
2023-02-14T13:34:32.703Z,15.40
2023-02-14T13:37:02.663Z,15.54
2023-02-14T13:39:38.314Z,15.50
2023-02-14T13:42:06.439Z,15.89
2023-02-14T13:44:49.551Z,15.67
2023-02-14T13:47:21.694Z,15.30
2023-02-14T13:49:52.081Z,15.04
2023-02-14T13:52:45.607Z,14.85
2023-02-14T13:55:43.691Z,14.84
2023-02-14T13:58:18.344Z,15.06
2023-02-14T14:00:46.820Z,15.14
2023-02-14T14:03:28.106Z,15.17
2023-02-14T14:06:12.034Z,14.86
2023-02-14T14:08:47.213Z,14.63
2023-02-14T14:11:50.018Z,14.70
2023-02-14T14:14:19.379Z,15.07
2023-02-14T14:16:58.000Z,15.14
2023-02-14T14:19:27.141Z,15.58
2023-02-14T14:22:02.453Z,16.16
2023-02-14T14:24:39.983Z,16.69
2023-02-14T14:27:17.477Z,16.66
2023-02-14T14:29:51.148Z,16.57
2023-02-14T14:32:24.884Z,16.18
2023-02-14T14:34:57.983Z,15.59
2023-02-14T14:37:31.479Z,15.01
2023-02-14T14:40:00.627Z,14.62
2023-02-14T14:42:32.150Z,14.52
2023-02-14T14:45:04.745Z,14.48
2023-02-14T14:47:42.789Z,14.63
2023-02-14T14:50:16.926Z,14.73
2023-02-14T14:52:47.705Z,14.45
2023-02-14T14:55:24.041Z,14.39
2023-02-14T14:57:55.904Z,14.53
2023-02-14T15:00:27.795Z,14.67
2023-02-14T15:03:04.482Z,14.88
2023-02-14T15:05:35.849Z,14.79
2023-02-14T15:08:27.378Z,14.93
2023-02-14T15:10:57.999Z,15.42
2023-02-14T15:13:33.907Z,16.10
2023-02-14T15:16:02.831Z,16.01
2023-02-14T15:18:30.282Z,16.12
2023-02-14T15:20:56.567Z,16.15
2023-02-14T15:23:24.643Z,15.80
2023-02-14T15:25:51.922Z,15.04
2023-02-14T15:28:28.850Z,14.24
2023-02-14T15:30:57.691Z,13.60
2023-02-14T15:33:24.880Z,13.24
2023-02-14T15:35:51.874Z,12.91
2023-02-14T15:38:21.678Z,13.02
2023-02-14T15:40:48.280Z,12.51
2023-02-14T15:43:29.875Z,12.16
2023-02-14T15:46:00.435Z,11.82
2023-02-14T15:48:31.634Z,11.82
2023-02-14T15:51:01.308Z,11.53
2023-02-14T15:53:33.660Z,11.21
2023-02-14T15:56:15.263Z,11.09
2023-02-14T15:58:44.188Z,10.99
2023-02-14T16:01:10.983Z,11.27
2023-02-14T16:03:41.695Z,11.87
2023-02-14T16:06:28.878Z,12.15
2023-02-14T16:08:56.543Z,12.09
2023-02-14T16:11:33.007Z,11.63
2023-02-14T16:14:39.657Z,11.21
2023-02-14T16:17:14.039Z,10.78
2023-02-14T16:19:44.985Z,10.33
2023-02-14T16:22:24.196Z,9.96
2023-02-14T16:24:50.567Z,9.55
2023-02-14T16:27:17.007Z,9.47
2023-02-14T16:29:43.380Z,9.19
2023-02-14T16:32:24.201Z,9.08
2023-02-14T16:34:50.763Z,8.82
2023-02-14T16:37:31.346Z,8.65
2023-02-14T16:40:00.765Z,8.43
2023-02-14T16:42:27.893Z,8.34
2023-02-14T16:44:54.387Z,8.15
2023-02-14T16:47:21.532Z,7.96
2023-02-14T16:49:47.844Z,7.84
2023-02-14T16:52:23.299Z,7.75
2023-02-14T16:54:49.942Z,7.57
2023-02-14T16:57:25.835Z,7.55
2023-02-14T16:59:54.124Z,7.43
2023-02-14T17:02:20.509Z,7.25
2023-02-14T17:04:47.301Z,7.21
2023-02-14T17:07:15.484Z,7.05
2023-02-14T17:09:52.669Z,7.03
2023-02-14T17:12:23.403Z,6.99
2023-02-14T17:14:53.539Z,6.93
2023-02-14T17:17:20.396Z,6.74
2023-02-14T17:19:46.900Z,6.52
2023-02-14T17:22:14.596Z,6.47
2023-02-14T17:24:41.661Z,6.35
2023-02-14T17:27:07.987Z,6.20
2023-02-14T17:29:34.395Z,6.07
2023-02-14T17:32:01.109Z,5.88
2023-02-14T17:34:33.881Z,5.79
2023-02-14T17:37:00.258Z,5.82
2023-02-14T17:39:26.714Z,5.62
2023-02-14T17:41:53.002Z,5.77
2023-02-14T17:44:19.379Z,5.65
2023-02-14T17:46:45.707Z,5.47
2023-02-14T17:49:12.105Z,5.38
2023-02-14T17:51:38.393Z,5.26
2023-02-14T17:54:04.932Z,5.16
2023-02-14T17:56:31.222Z,5.16
2023-02-14T17:58:57.545Z,5.12
2023-02-14T18:01:26.750Z,5.02
2023-02-14T18:03:54.572Z,4.90
2023-02-14T18:06:20.980Z,5.02
2023-02-14T18:08:49.784Z,5.12
2023-02-14T18:11:17.661Z,4.99
2023-02-14T18:13:44.431Z,4.93
2023-02-14T18:16:13.086Z,5.07
2023-02-14T18:18:40.350Z,5.16
2023-02-14T18:21:09.504Z,5.16
2023-02-14T18:23:36.326Z,5.09
2023-02-14T18:26:05.348Z,5.04
2023-02-14T18:28:32.948Z,4.91
2023-02-14T18:31:08.108Z,4.81
2023-02-14T18:33:35.611Z,4.81
2023-02-14T18:36:07.125Z,4.72
2023-02-14T18:38:34.345Z,4.64
2023-02-14T18:41:07.916Z,4.66
2023-02-14T18:43:35.019Z,4.65
2023-02-14T18:46:06.274Z,4.54
2023-02-14T18:48:33.423Z,4.68
2023-02-14T18:51:06.688Z,4.52
2023-02-14T18:53:33.070Z,4.21
2023-02-14T18:55:59.483Z,4.03
2023-02-14T18:58:25.989Z,3.90
2023-02-14T19:00:53.481Z,3.89
2023-02-14T19:03:19.761Z,3.78
2023-02-14T19:05:46.107Z,3.68
2023-02-14T19:08:12.382Z,3.63
2023-02-14T19:10:38.672Z,3.76
2023-02-14T19:13:06.092Z,4.23
2023-02-14T19:15:32.520Z,3.99
2023-02-14T19:17:58.982Z,4.15
2023-02-14T19:20:25.251Z,4.10
2023-02-14T19:22:51.938Z,3.93
2023-02-14T19:25:18.236Z,3.85
2023-02-14T19:27:44.853Z,4.15
2023-02-14T19:30:11.436Z,4.19
2023-02-14T19:32:37.909Z,4.10
2023-02-14T19:35:04.355Z,3.98
2023-02-14T19:37:30.722Z,4.10
2023-02-14T19:39:57.086Z,4.24
2023-02-14T19:42:23.877Z,4.05
2023-02-14T19:44:50.153Z,4.21
2023-02-14T19:47:30.937Z,3.99
2023-02-14T19:50:00.048Z,3.85
2023-02-14T19:52:26.955Z,4.13
2023-02-14T19:54:54.112Z,3.97
2023-02-14T19:57:20.391Z,3.96
2023-02-14T19:59:46.932Z,3.98
2023-02-14T20:02:15.362Z,3.82
2023-02-14T20:04:41.706Z,3.83
2023-02-14T20:07:08.274Z,3.81
2023-02-14T20:09:35.156Z,3.80
2023-02-14T20:12:01.584Z,3.71
2023-02-14T20:14:43.659Z,3.79
2023-02-14T20:17:16.421Z,3.82
2023-02-14T20:19:42.723Z,3.63
2023-02-14T20:22:09.086Z,3.67
2023-02-14T20:24:35.407Z,3.68
2023-02-14T20:27:01.792Z,3.72
2023-02-14T20:29:29.024Z,3.79
2023-02-14T20:31:58.179Z,3.69
2023-02-14T20:34:24.539Z,3.67
2023-02-14T20:36:50.940Z,3.64
2023-02-14T20:39:17.292Z,3.58
2023-02-14T20:41:43.586Z,3.68
2023-02-14T20:44:12.589Z,3.64
2023-02-14T20:46:38.872Z,3.73
2023-02-14T20:49:05.248Z,3.72
2023-02-14T20:51:31.729Z,3.70
2023-02-14T20:53:58.002Z,3.61
2023-02-14T20:56:24.429Z,3.59
2023-02-14T20:58:50.856Z,3.58
2023-02-14T21:01:20.967Z,3.53
2023-02-14T21:03:49.219Z,3.63
2023-02-14T21:06:15.494Z,3.55
2023-02-14T21:08:43.282Z,3.63
2023-02-14T21:11:11.969Z,3.49
2023-02-14T21:13:39.088Z,3.53
2023-02-14T21:16:14.746Z,3.46
2023-02-14T21:18:42.016Z,3.33
2023-02-14T21:21:19.907Z,3.17
2023-02-14T21:23:49.238Z,3.21
2023-02-14T21:26:16.232Z,3.11
2023-02-14T21:28:42.798Z,3.06
2023-02-14T21:31:11.340Z,3.15
2023-02-14T21:33:38.387Z,3.06
2023-02-14T21:36:15.747Z,3.02
2023-02-14T21:38:42.093Z,3.09
2023-02-14T21:41:14.438Z,3.08
2023-02-14T21:43:43.324Z,3.16
2023-02-14T21:46:15.643Z,3.08
2023-02-14T21:48:42.428Z,3.14
2023-02-14T21:51:08.938Z,2.99
2023-02-14T21:53:35.300Z,2.92
2023-02-14T21:56:12.910Z,2.82
2023-02-14T21:58:40.515Z,2.78
2023-02-14T22:01:07.742Z,2.63
2023-02-14T22:03:34.536Z,2.55
2023-02-14T22:06:04.912Z,2.48
2023-02-14T22:08:31.961Z,2.47
2023-02-14T22:10:58.922Z,2.47
2023-02-14T22:13:25.908Z,2.33
2023-02-14T22:15:52.320Z,2.33
2023-02-14T22:18:18.620Z,2.27
2023-02-14T22:20:45.063Z,2.24
2023-02-14T22:23:11.477Z,2.28
2023-02-14T22:25:37.759Z,2.14
2023-02-14T22:28:04.125Z,2.08
2023-02-14T22:30:30.394Z,2.06
2023-02-14T22:32:56.737Z,1.93
2023-02-14T22:35:23.096Z,1.96
2023-02-14T22:37:49.459Z,1.94
2023-02-14T22:40:15.904Z,2.06
2023-02-14T22:42:42.210Z,2.00
2023-02-14T22:45:09.040Z,1.94
2023-02-14T22:47:35.333Z,1.99
2023-02-14T22:50:01.744Z,1.96
2023-02-14T22:52:28.048Z,1.84
2023-02-14T22:54:54.726Z,1.81
2023-02-14T22:57:21.098Z,1.77
2023-02-14T22:59:47.473Z,1.61
2023-02-14T23:02:13.806Z,1.67
2023-02-14T23:04:40.135Z,1.63
2023-02-14T23:07:06.526Z,1.59
2023-02-14T23:09:33.001Z,1.51
2023-02-14T23:11:59.365Z,1.41
2023-02-14T23:14:25.659Z,1.35
2023-02-14T23:16:52.305Z,1.35
2023-02-14T23:19:21.706Z,1.37
2023-02-14T23:21:48.066Z,1.33
2023-02-14T23:24:14.439Z,1.27
2023-02-14T23:26:40.715Z,1.29
2023-02-14T23:29:07.112Z,1.21
2023-02-14T23:31:33.666Z,1.26
2023-02-14T23:34:00.223Z,1.16
2023-02-14T23:36:26.689Z,1.12
2023-02-14T23:38:53.052Z,1.09
2023-02-14T23:41:19.326Z,1.12
2023-02-14T23:43:48.756Z,1.14
2023-02-14T23:46:15.026Z,1.10
2023-02-14T23:48:41.384Z,1.16
2023-02-14T23:51:07.656Z,1.08
2023-02-14T23:53:34.011Z,1.10
2023-02-14T23:56:01.966Z,1.14
2023-02-14T23:58:28.657Z,1.20
